createdAt,value
2017-03-06T00:00:09.606Z,0
2017-03-06T00:01:09.647Z,0
2017-03-06T00:02:09.681Z,0
2017-03-06T00:03:09.738Z,0
2017-03-06T00:04:09.791Z,0
2017-03-06T00:05:09.844Z,0
2017-03-06T00:06:09.909Z,0
2017-03-06T00:07:09.953Z,0
2017-03-06T00:08:09.643Z,0
2017-03-06T00:09:10.061Z,0
2017-03-06T00:10:10.146Z,0
2017-03-06T00:11:10.201Z,0
2017-03-06T00:12:10.224Z,0
2017-03-06T00:13:10.269Z,0
2017-03-06T00:14:09.972Z,0
2017-03-06T00:15:10.405Z,0
2017-03-06T00:16:10.456Z,0
2017-03-06T00:17:10.506Z,0
2017-03-06T00:18:10.174Z,0
2017-03-06T00:19:10.625Z,0
2017-03-06T00:20:10.671Z,0
2017-03-06T00:21:10.735Z,0
2017-03-06T00:22:10.790Z,0
2017-03-06T00:23:10.847Z,0
2017-03-06T00:24:10.898Z,0
2017-03-06T00:25:10.942Z,0
2017-03-06T00:26:11.000Z,0
2017-03-06T00:27:11.043Z,0
2017-03-06T00:28:11.108Z,0
2017-03-06T00:29:11.158Z,0
2017-03-06T00:30:11.240Z,0
2017-03-06T00:31:11.267Z,0
2017-03-06T00:32:11.328Z,0
2017-03-06T00:33:11.376Z,0
2017-03-06T00:34:11.430Z,0
2017-03-06T00:35:11.484Z,0
2017-03-06T00:36:11.167Z,0
2017-03-06T00:37:11.612Z,0
2017-03-06T00:38:11.701Z,0
2017-03-06T00:39:11.703Z,0
2017-03-06T00:40:11.769Z,0
2017-03-06T00:41:11.830Z,0
2017-03-06T00:42:11.885Z,0
2017-03-06T00:43:11.929Z,0
2017-03-06T00:44:11.986Z,0
2017-03-06T00:45:12.056Z,0
2017-03-06T00:46:12.104Z,0
2017-03-06T00:47:12.159Z,0
2017-03-06T00:48:12.217Z,0
2017-03-06T00:49:12.283Z,0
2017-03-06T00:50:12.306Z,0
2017-03-06T00:51:12.368Z,0
2017-03-06T00:52:12.426Z,0
2017-03-06T00:53:12.492Z,0
2017-03-06T00:54:12.552Z,0
2017-03-06T00:55:12.597Z,0
2017-03-06T00:56:12.676Z,0
2017-03-06T00:57:12.700Z,0
2017-03-06T00:58:12.765Z,0
2017-03-06T00:59:12.818Z,0
2017-03-06T01:00:12.865Z,0
2017-03-06T01:01:12.921Z,0
2017-03-06T01:02:12.984Z,0
2017-03-06T01:03:13.051Z,0
2017-03-06T01:04:13.080Z,0
2017-03-06T01:05:13.150Z,0
2017-03-06T01:06:13.191Z,0
2017-03-06T01:07:13.234Z,0
2017-03-06T01:08:13.312Z,0
2017-03-06T01:09:13.385Z,0
2017-03-06T01:10:13.416Z,0
2017-03-06T01:11:13.464Z,0
2017-03-06T01:12:13.558Z,0
2017-03-06T01:13:13.559Z,0
2017-03-06T01:14:13.616Z,0
2017-03-06T01:15:13.700Z,0
2017-03-06T01:16:13.735Z,0
2017-03-06T01:17:13.797Z,0
2017-03-06T01:18:13.846Z,0
2017-03-06T01:19:13.915Z,0
2017-03-06T01:20:13.954Z,0
2017-03-06T01:21:14.001Z,0
2017-03-06T01:22:14.057Z,0
2017-03-06T01:23:14.125Z,0
2017-03-06T01:24:14.173Z,0
2017-03-06T01:25:14.235Z,0
2017-03-06T01:26:14.284Z,0
2017-03-06T01:27:14.362Z,0
2017-03-06T01:28:14.407Z,0
2017-03-06T01:29:14.466Z,0
2017-03-06T01:30:14.490Z,0
2017-03-06T01:31:14.569Z,0
2017-03-06T01:32:14.620Z,0
2017-03-06T01:33:14.684Z,0
2017-03-06T01:34:14.736Z,0
2017-03-06T01:35:14.791Z,0
2017-03-06T01:36:14.845Z,0
2017-03-06T01:37:14.899Z,0
2017-03-06T01:38:14.956Z,0
2017-03-06T01:39:15.012Z,0
2017-03-06T01:40:14.669Z,0
2017-03-06T01:41:15.110Z,0
2017-03-06T01:42:15.187Z,0
2017-03-06T01:43:15.212Z,0
2017-03-06T01:44:15.289Z,0
2017-03-06T01:45:15.327Z,0
2017-03-06T01:46:15.372Z,0
2017-03-06T01:47:15.432Z,0
2017-03-06T01:48:15.480Z,0
2017-03-06T01:49:15.533Z,0
2017-03-06T01:50:15.608Z,0
2017-03-06T01:51:15.652Z,0
2017-03-06T01:52:15.697Z,0
2017-03-06T01:53:15.775Z,0
2017-03-06T01:54:15.845Z,0
2017-03-06T01:55:15.875Z,0
2017-03-06T01:56:15.928Z,0
2017-03-06T01:57:16.000Z,0
2017-03-06T01:58:16.039Z,0
2017-03-06T01:59:16.108Z,0
2017-03-06T02:00:16.183Z,0
2017-03-06T02:01:16.213Z,0
2017-03-06T02:02:16.275Z,0
2017-03-06T02:03:16.308Z,0
2017-03-06T02:04:16.368Z,0
2017-03-06T02:05:16.446Z,0
2017-03-06T02:06:16.468Z,0
2017-03-06T02:07:16.548Z,0
2017-03-06T02:08:16.594Z,0
2017-03-06T02:09:16.653Z,0
2017-03-06T02:10:16.331Z,0
2017-03-06T02:11:16.737Z,0
2017-03-06T02:12:16.820Z,0
2017-03-06T02:13:16.856Z,0
2017-03-06T02:14:16.900Z,0
2017-03-06T02:15:16.985Z,0
2017-03-06T02:16:17.028Z,0
2017-03-06T02:17:17.087Z,0
2017-03-06T02:18:17.138Z,0
2017-03-06T02:19:17.197Z,0
2017-03-06T02:20:17.263Z,0
2017-03-06T02:21:17.302Z,0
2017-03-06T02:22:17.348Z,0
2017-03-06T02:23:17.412Z,0
2017-03-06T02:24:17.471Z,0
2017-03-06T02:25:17.522Z,0
2017-03-06T02:26:17.584Z,0
2017-03-06T02:27:17.627Z,0
2017-03-06T02:28:17.668Z,0
2017-03-06T02:29:17.710Z,0
2017-03-06T02:30:17.779Z,0
2017-03-06T02:31:17.828Z,0
2017-03-06T02:32:17.882Z,0
2017-03-06T02:33:17.928Z,0
2017-03-06T02:34:17.993Z,0
2017-03-06T02:35:18.058Z,0
2017-03-06T02:36:18.104Z,0
2017-03-06T02:37:18.156Z,0
2017-03-06T02:38:18.225Z,0
2017-03-06T02:39:18.272Z,0
2017-03-06T02:40:18.347Z,0
2017-03-06T02:41:18.368Z,0
2017-03-06T02:42:18.437Z,0
2017-03-06T02:43:18.088Z,0
2017-03-06T02:44:18.139Z,0
2017-03-06T02:45:18.597Z,0
2017-03-06T02:46:18.655Z,0
2017-03-06T02:47:18.700Z,0
2017-03-06T02:48:18.732Z,0
2017-03-06T02:49:18.800Z,0
2017-03-06T02:50:18.850Z,0
2017-03-06T02:51:18.907Z,0
2017-03-06T02:52:18.957Z,0
2017-03-06T02:53:19.007Z,0
2017-03-06T02:54:19.090Z,0
2017-03-06T02:55:19.140Z,0
2017-03-06T02:56:19.199Z,0
2017-03-06T02:57:19.234Z,0
2017-03-06T02:58:19.289Z,0
2017-03-06T02:59:19.317Z,0
2017-03-06T03:00:19.370Z,0
2017-03-06T03:01:19.452Z,0
2017-03-06T03:02:19.494Z,0
2017-03-06T03:03:19.536Z,0
2017-03-06T03:04:19.612Z,0
2017-03-06T03:05:19.679Z,0
2017-03-06T03:06:19.703Z,0
2017-03-06T03:07:19.772Z,0
2017-03-06T03:08:19.806Z,0
2017-03-06T03:09:19.865Z,0
2017-03-06T03:10:19.930Z,0
2017-03-06T03:11:19.970Z,0
2017-03-06T03:12:20.066Z,0
2017-03-06T03:13:20.071Z,0
2017-03-06T03:14:20.140Z,0
2017-03-06T03:15:19.806Z,0
2017-03-06T03:16:20.256Z,0
2017-03-06T03:17:20.304Z,0
2017-03-06T03:18:20.371Z,0
2017-03-06T03:19:20.407Z,0
2017-03-06T03:20:20.465Z,0
2017-03-06T03:21:20.509Z,0
2017-03-06T03:22:20.568Z,0
2017-03-06T03:23:20.613Z,0
2017-03-06T03:24:20.682Z,0
2017-03-06T03:25:20.739Z,0
2017-03-06T03:26:20.791Z,0
2017-03-06T03:27:20.852Z,0
2017-03-06T03:28:20.910Z,0
2017-03-06T03:29:20.948Z,0
2017-03-06T03:30:21.005Z,0
2017-03-06T03:31:21.058Z,0
2017-03-06T03:32:21.122Z,0
2017-03-06T03:33:21.154Z,0
2017-03-06T03:34:21.224Z,0
2017-03-06T03:35:21.264Z,0
2017-03-06T03:36:21.520Z,0
2017-03-06T03:37:21.374Z,0
2017-03-06T03:38:21.069Z,0
2017-03-06T03:39:21.493Z,0
2017-03-06T03:40:21.550Z,0
2017-03-06T03:41:35.262Z,0
2017-03-06T03:42:21.644Z,0
2017-03-06T03:43:21.729Z,0
2017-03-06T03:44:21.758Z,0
2017-03-06T03:45:21.813Z,0
2017-03-06T03:46:21.500Z,0
2017-03-06T03:47:21.920Z,0
2017-03-06T03:48:22.005Z,0
2017-03-06T03:49:22.041Z,0
2017-03-06T03:50:22.096Z,0
2017-03-06T03:51:22.147Z,0
2017-03-06T03:52:22.197Z,0
2017-03-06T03:53:22.273Z,0
2017-03-06T03:54:22.322Z,0
2017-03-06T03:55:22.375Z,0
2017-03-06T03:56:22.420Z,0
2017-03-06T03:57:22.497Z,0
2017-03-06T03:58:22.542Z,0
2017-03-06T03:59:22.593Z,0
2017-03-06T04:00:22.656Z,0
2017-03-06T04:01:22.691Z,0
2017-03-06T04:02:22.752Z,0
2017-03-06T04:03:22.799Z,0
2017-03-06T04:04:22.880Z,0
2017-03-06T04:05:22.907Z,0
2017-03-06T04:06:22.953Z,0
2017-03-06T04:07:23.233Z,0
2017-03-06T04:08:23.103Z,0
2017-03-06T04:09:23.118Z,0
2017-03-06T04:10:23.189Z,0
2017-03-06T04:11:23.459Z,0
2017-03-06T04:12:23.341Z,0
2017-03-06T04:13:23.346Z,0
2017-03-06T04:14:23.408Z,0
2017-03-06T04:15:23.458Z,0
2017-03-06T04:16:23.517Z,0
2017-03-06T04:17:23.590Z,0
2017-03-06T04:18:23.627Z,0
2017-03-06T04:19:23.681Z,0
2017-03-06T04:20:23.722Z,0
2017-03-06T04:21:23.784Z,0
2017-03-06T04:22:23.852Z,0
2017-03-06T04:23:23.904Z,0
2017-03-06T04:24:23.968Z,0
2017-03-06T04:25:23.990Z,0
2017-03-06T04:26:24.069Z,0
2017-03-06T04:27:24.143Z,0
2017-03-06T04:28:24.170Z,0
2017-03-06T04:29:24.235Z,0
2017-03-06T04:30:24.290Z,0
2017-03-06T04:31:24.366Z,0
2017-03-06T04:32:24.387Z,0
2017-03-06T04:33:24.456Z,0
2017-03-06T04:34:24.515Z,0
2017-03-06T04:35:24.561Z,0
2017-03-06T04:36:24.609Z,0
2017-03-06T04:37:38.056Z,0
2017-03-06T04:38:24.713Z,0
2017-03-06T04:39:24.970Z,0
2017-03-06T04:40:24.813Z,0
2017-03-06T04:41:24.914Z,0
2017-03-06T04:42:24.918Z,0
2017-03-06T04:43:24.614Z,0
2017-03-06T04:44:25.068Z,0
2017-03-06T04:45:25.091Z,0
2017-03-06T04:46:25.168Z,0
2017-03-06T04:47:25.205Z,0
2017-03-06T04:48:25.280Z,0
2017-03-06T04:49:38.702Z,0
2017-03-06T04:50:25.367Z,0
2017-03-06T04:51:25.041Z,0
2017-03-06T04:52:25.472Z,0
2017-03-06T04:53:25.558Z,0
2017-03-06T04:54:25.597Z,0
2017-03-06T04:55:25.633Z,0
2017-03-06T04:56:25.696Z,0
2017-03-06T04:57:25.759Z,0
2017-03-06T04:58:25.810Z,0
2017-03-06T04:59:25.855Z,0
2017-03-06T05:00:25.928Z,0
2017-03-06T05:01:25.967Z,0
2017-03-06T05:02:26.014Z,0
2017-03-06T05:03:26.085Z,0
2017-03-06T05:04:26.120Z,0
2017-03-06T05:05:26.185Z,0
2017-03-06T05:06:26.237Z,0
2017-03-06T05:07:26.310Z,0
2017-03-06T05:08:26.155Z,0
2017-03-06T05:09:26.407Z,0
2017-03-06T05:10:40.089Z,0
2017-03-06T05:11:26.523Z,0
2017-03-06T05:12:26.574Z,0
2017-03-06T05:13:26.605Z,0
2017-03-06T05:14:26.652Z,0
2017-03-06T05:15:26.726Z,0
2017-03-06T05:16:26.762Z,0
2017-03-06T05:17:26.816Z,0
2017-03-06T05:18:26.875Z,0
2017-03-06T05:19:26.926Z,0
2017-03-06T05:20:26.970Z,0
2017-03-06T05:21:27.036Z,0
2017-03-06T05:22:27.092Z,0
2017-03-06T05:23:27.150Z,0
2017-03-06T05:24:27.203Z,0
2017-03-06T05:25:27.260Z,0
2017-03-06T05:26:27.315Z,0
2017-03-06T05:27:27.349Z,0
2017-03-06T05:28:27.032Z,0
2017-03-06T05:29:27.455Z,0
2017-03-06T05:30:27.504Z,0
2017-03-06T05:31:27.568Z,0
2017-03-06T05:32:27.649Z,4
2017-03-06T05:33:27.682Z,4
2017-03-06T05:34:27.935Z,4
2017-03-06T05:35:27.772Z,4
2017-03-06T05:36:27.826Z,4
2017-03-06T05:37:27.879Z,4
2017-03-06T05:38:27.958Z,8
2017-03-06T05:39:27.986Z,8
2017-03-06T05:40:28.052Z,4
2017-03-06T05:41:28.311Z,8
2017-03-06T05:42:28.166Z,8
2017-03-06T05:43:28.211Z,12
2017-03-06T05:44:28.257Z,12
2017-03-06T05:45:28.304Z,16
2017-03-06T05:46:41.996Z,12
2017-03-06T05:47:28.622Z,16
2017-03-06T05:48:28.452Z,16
2017-03-06T05:49:28.506Z,16
2017-03-06T05:50:28.571Z,20
2017-03-06T05:51:28.642Z,24
2017-03-06T05:52:42.058Z,28
2017-03-06T05:53:28.737Z,32
2017-03-06T05:54:28.787Z,32
2017-03-06T05:55:28.838Z,40
2017-03-06T05:56:28.881Z,44
2017-03-06T05:57:28.966Z,52
2017-03-06T05:58:29.013Z,60
2017-03-06T05:59:29.046Z,68
2017-03-06T06:00:29.113Z,72
2017-03-06T06:01:29.182Z,76
2017-03-06T06:02:28.830Z,80
2017-03-06T06:03:29.249Z,88
2017-03-06T06:04:28.912Z,96
2017-03-06T06:05:29.367Z,100
2017-03-06T06:06:29.428Z,96
2017-03-06T06:07:29.464Z,100
2017-03-06T06:08:29.535Z,88
2017-03-06T06:09:29.594Z,92
2017-03-06T06:10:29.657Z,100
2017-03-06T06:11:29.698Z,108
2017-03-06T06:12:29.732Z,104
2017-03-06T06:13:29.998Z,96
2017-03-06T06:14:29.836Z,92
2017-03-06T06:15:29.919Z,92
2017-03-06T06:16:29.947Z,100
2017-03-06T06:17:29.622Z,100
2017-03-06T06:18:30.048Z,112
2017-03-06T06:19:30.115Z,128
2017-03-06T06:20:30.164Z,136
2017-03-06T06:21:30.221Z,148
2017-03-06T06:22:30.261Z,160
2017-03-06T06:23:30.319Z,184
2017-03-06T06:24:30.194Z,196
2017-03-06T06:25:44.977Z,260
2017-03-06T06:26:30.482Z,292
2017-03-06T06:27:30.536Z,296
2017-03-06T06:28:30.598Z,232
2017-03-06T06:29:30.635Z,172
2017-03-06T06:30:30.689Z,156
2017-03-06T06:31:30.761Z,144
2017-03-06T06:32:30.805Z,144
2017-03-06T06:33:30.843Z,156
2017-03-06T06:34:30.534Z,176
2017-03-06T06:35:30.975Z,176
2017-03-06T06:36:31.021Z,176
2017-03-06T06:37:31.082Z,200
2017-03-06T06:38:31.135Z,180
2017-03-06T06:39:31.201Z,212
2017-03-06T06:40:31.228Z,308
2017-03-06T06:41:31.300Z,260
2017-03-06T06:42:31.338Z,344
2017-03-06T06:43:31.384Z,404
2017-03-06T06:44:31.421Z,492
2017-03-06T06:45:31.521Z,468
2017-03-06T06:46:31.546Z,444
2017-03-06T06:47:31.223Z,484
2017-03-06T06:48:31.666Z,400
2017-03-06T06:49:31.718Z,400
2017-03-06T06:50:31.749Z,372
2017-03-06T06:51:31.820Z,468
2017-03-06T06:52:31.875Z,468
2017-03-06T06:53:31.916Z,524
2017-03-06T06:54:31.979Z,520
2017-03-06T06:55:32.027Z,540
2017-03-06T06:56:32.080Z,444
2017-03-06T06:57:32.144Z,380
2017-03-06T06:58:31.801Z,352
2017-03-06T06:59:32.265Z,420
2017-03-06T07:00:32.311Z,444
2017-03-06T07:01:32.359Z,372
2017-03-06T07:02:32.389Z,380
2017-03-06T07:03:32.463Z,576
2017-03-06T07:04:32.522Z,664
2017-03-06T07:05:32.571Z,748
2017-03-06T07:06:32.238Z,832
2017-03-06T07:07:32.669Z,904
2017-03-06T07:08:32.725Z,908
2017-03-06T07:09:32.777Z,996
2017-03-06T07:10:32.836Z,1012
2017-03-06T07:11:32.894Z,1128
2017-03-06T07:12:32.945Z,1060
2017-03-06T07:13:32.994Z,1192
2017-03-06T07:14:33.100Z,1100
2017-03-06T07:15:33.120Z,1164
2017-03-06T07:16:33.158Z,968
2017-03-06T07:17:33.214Z,964
2017-03-06T07:18:33.253Z,960
2017-03-06T07:19:33.323Z,764
2017-03-06T07:20:33.384Z,716
2017-03-06T07:21:33.452Z,724
2017-03-06T07:22:33.491Z,660
2017-03-06T07:23:33.551Z,600
2017-03-06T07:24:33.626Z,608
2017-03-06T07:25:33.657Z,628
2017-03-06T07:26:33.702Z,556
2017-03-06T07:27:33.755Z,560
2017-03-06T07:28:33.807Z,592
2017-03-06T07:29:33.882Z,812
2017-03-06T07:30:33.925Z,860
2017-03-06T07:31:33.981Z,756
2017-03-06T07:32:34.048Z,688
2017-03-06T07:33:33.690Z,604
2017-03-06T07:34:34.126Z,580
2017-03-06T07:35:34.188Z,732
2017-03-06T07:36:34.247Z,740
2017-03-06T07:37:34.309Z,812
2017-03-06T07:38:34.379Z,780
2017-03-06T07:39:34.409Z,744
2017-03-06T07:40:34.465Z,828
2017-03-06T07:41:34.523Z,832
2017-03-06T07:42:34.579Z,800
2017-03-06T07:43:34.639Z,780
2017-03-06T07:44:34.702Z,724
2017-03-06T07:45:34.749Z,668
2017-03-06T07:46:34.811Z,888
2017-03-06T07:47:34.834Z,788
2017-03-06T07:48:34.919Z,704
2017-03-06T07:49:34.952Z,572
2017-03-06T07:50:35.015Z,660
2017-03-06T07:51:35.090Z,776
2017-03-06T07:52:35.127Z,792
2017-03-06T07:53:35.185Z,920
2017-03-06T07:54:35.245Z,960
2017-03-06T07:55:35.281Z,732
2017-03-06T07:56:35.334Z,740
2017-03-06T07:57:35.393Z,888
2017-03-06T07:58:35.071Z,952
2017-03-06T07:59:35.511Z,876
2017-03-06T08:00:35.581Z,716
2017-03-06T08:01:35.611Z,860
2017-03-06T08:02:35.693Z,940
2017-03-06T08:03:35.712Z,1148
2017-03-06T08:04:35.770Z,1228
2017-03-06T08:05:35.860Z,1248
2017-03-06T08:06:35.880Z,1088
2017-03-06T08:07:35.961Z,948
2017-03-06T08:08:36.065Z,852
2017-03-06T08:09:36.078Z,860
2017-03-06T08:10:36.108Z,836
2017-03-06T08:11:36.183Z,1000
2017-03-06T08:12:36.235Z,980
2017-03-06T08:13:35.904Z,1100
2017-03-06T08:14:36.324Z,1308
2017-03-06T08:15:36.379Z,1524
2017-03-06T08:16:36.054Z,1728
2017-03-06T08:17:36.515Z,2296
2017-03-06T08:18:36.543Z,1652
2017-03-06T08:19:36.621Z,1396
2017-03-06T08:20:36.670Z,1648
2017-03-06T08:21:36.701Z,2308
2017-03-06T08:22:36.764Z,1736
2017-03-06T08:23:36.834Z,2500
2017-03-06T08:24:36.887Z,2580
2017-03-06T08:25:36.948Z,2672
2017-03-06T08:26:36.982Z,2876
2017-03-06T08:27:37.039Z,3156
2017-03-06T08:28:37.108Z,1868
2017-03-06T08:29:37.161Z,1428
2017-03-06T08:30:37.216Z,1644
2017-03-06T08:31:37.276Z,1444
2017-03-06T08:32:37.315Z,1276
2017-03-06T08:33:37.383Z,1132
2017-03-06T08:34:37.435Z,1372
2017-03-06T08:35:37.471Z,1588
2017-03-06T08:36:37.548Z,1296
2017-03-06T08:37:37.199Z,1296
2017-03-06T08:38:37.639Z,1488
2017-03-06T08:39:37.347Z,2184
2017-03-06T08:40:37.758Z,1756
2017-03-06T08:41:37.807Z,1772
2017-03-06T08:42:37.858Z,1252
2017-03-06T08:43:37.573Z,980
2017-03-06T08:44:37.593Z,792
2017-03-06T08:45:38.045Z,972
2017-03-06T08:46:38.099Z,1100
2017-03-06T08:47:38.152Z,1312
2017-03-06T08:48:38.190Z,1060
2017-03-06T08:49:38.239Z,780
2017-03-06T08:50:38.307Z,1000
2017-03-06T08:51:38.370Z,1028
2017-03-06T08:52:38.425Z,1028
2017-03-06T08:53:38.464Z,1048
2017-03-06T08:54:38.162Z,944
2017-03-06T08:55:38.571Z,920
2017-03-06T08:56:38.636Z,844
2017-03-06T08:57:38.691Z,876
2017-03-06T08:58:38.756Z,768
2017-03-06T08:59:38.810Z,872
2017-03-06T09:00:38.472Z,1012
2017-03-06T09:01:38.913Z,1004
2017-03-06T09:02:38.979Z,868
2017-03-06T09:03:39.038Z,1004
2017-03-06T09:04:39.082Z,1124
2017-03-06T09:05:39.119Z,972
2017-03-06T09:06:38.803Z,1320
2017-03-06T09:07:39.243Z,1088
2017-03-06T09:08:39.313Z,948
2017-03-06T09:09:39.368Z,1108
2017-03-06T09:10:39.409Z,1032
2017-03-06T09:11:39.093Z,1032
2017-03-06T09:12:39.520Z,992
2017-03-06T09:13:39.588Z,928
2017-03-06T09:14:39.252Z,872
2017-03-06T09:15:39.690Z,832
2017-03-06T09:16:39.738Z,896
2017-03-06T09:17:39.794Z,896
2017-03-06T09:18:39.483Z,1000
2017-03-06T09:19:39.501Z,1076
2017-03-06T09:20:39.969Z,1212
2017-03-06T09:21:40.035Z,1256
2017-03-06T09:22:40.087Z,1452
2017-03-06T09:23:40.138Z,1984
2017-03-06T09:24:40.182Z,1520
2017-03-06T09:25:40.249Z,1316
2017-03-06T09:26:40.303Z,1020
2017-03-06T09:27:40.371Z,1152
2017-03-06T09:28:40.402Z,1272
2017-03-06T09:29:40.431Z,1604
2017-03-06T09:30:40.494Z,1548
2017-03-06T09:31:40.594Z,1980
2017-03-06T09:32:40.640Z,1948
2017-03-06T09:33:40.676Z,1420
2017-03-06T09:34:40.747Z,1708
2017-03-06T09:35:40.770Z,1840
2017-03-06T09:36:40.830Z,1636
2017-03-06T09:37:40.922Z,1612
2017-03-06T09:38:40.933Z,1716
2017-03-06T09:39:40.999Z,1580
2017-03-06T09:40:41.037Z,1568
2017-03-06T09:41:41.107Z,1648
2017-03-06T09:42:40.802Z,1632
2017-03-06T09:43:40.838Z,1440
2017-03-06T09:44:40.882Z,1204
2017-03-06T09:45:40.950Z,1536
2017-03-06T09:46:40.612Z,1760
2017-03-06T09:47:41.445Z,1656
2017-03-06T09:48:41.112Z,1472
2017-03-06T09:49:41.572Z,1384
2017-03-06T09:50:41.611Z,1384
2017-03-06T09:51:41.661Z,1284
2017-03-06T09:52:41.717Z,1384
2017-03-06T09:53:41.780Z,1528
2017-03-06T09:54:41.824Z,1460
2017-03-06T09:55:41.859Z,1184
2017-03-06T09:56:41.915Z,1164
2017-03-06T09:57:41.979Z,1292
2017-03-06T09:58:41.667Z,1352
2017-03-06T09:59:41.689Z,1108
2017-03-06T10:00:42.154Z,1016
2017-03-06T10:01:42.213Z,1176
2017-03-06T10:02:42.256Z,1400
2017-03-06T10:03:42.309Z,1372
2017-03-06T10:04:41.974Z,1864
2017-03-06T10:05:42.038Z,1676
2017-03-06T10:06:42.086Z,1524
2017-03-06T10:07:42.538Z,1392
2017-03-06T10:08:42.586Z,1680
2017-03-06T10:09:42.253Z,1212
2017-03-06T10:10:42.719Z,1300
2017-03-06T10:11:42.739Z,1276
2017-03-06T10:12:42.808Z,1328
2017-03-06T10:13:42.483Z,1504
2017-03-06T10:14:42.927Z,1228
2017-03-06T10:15:42.970Z,1160
2017-03-06T10:16:43.057Z,1152
2017-03-06T10:17:43.066Z,1076
2017-03-06T10:18:43.133Z,1316
2017-03-06T10:19:43.222Z,1644
2017-03-06T10:20:43.244Z,2532
2017-03-06T10:21:43.297Z,2468
2017-03-06T10:22:43.355Z,1472
2017-03-06T10:23:43.403Z,1296
2017-03-06T10:24:43.457Z,1076
2017-03-06T10:25:43.512Z,1388
2017-03-06T10:26:43.564Z,1676
2017-03-06T10:27:43.629Z,1604
2017-03-06T10:28:43.694Z,1312
2017-03-06T10:29:43.746Z,1180
2017-03-06T10:30:43.792Z,1552
2017-03-06T10:31:43.825Z,1400
2017-03-06T10:32:43.516Z,2180
2017-03-06T10:33:43.975Z,3484
2017-03-06T10:34:44.022Z,1604
2017-03-06T10:35:44.085Z,1536
2017-03-06T10:36:44.112Z,1764
2017-03-06T10:37:43.412Z,2172
2017-03-06T10:38:44.211Z,2152
2017-03-06T10:39:43.913Z,1784
2017-03-06T10:40:43.951Z,1576
2017-03-06T10:41:44.388Z,1544
2017-03-06T10:42:44.451Z,2436
2017-03-06T10:43:44.496Z,1648
2017-03-06T10:44:44.582Z,1456
2017-03-06T10:45:44.602Z,1604
2017-03-06T10:46:44.674Z,1732
2017-03-06T10:47:44.743Z,1776
2017-03-06T10:48:44.777Z,2016
2017-03-06T10:49:44.812Z,1952
2017-03-06T10:50:44.876Z,2096
2017-03-06T10:51:44.943Z,2000
2017-03-06T10:52:44.621Z,2984
2017-03-06T10:53:44.648Z,3144
2017-03-06T10:54:45.085Z,2892
2017-03-06T10:55:45.148Z,4576
2017-03-06T10:56:45.231Z,3604
2017-03-06T10:57:45.262Z,4976
2017-03-06T10:58:45.321Z,4388
2017-03-06T10:59:45.356Z,4624
2017-03-06T11:00:45.458Z,4808
2017-03-06T11:01:45.502Z,3192
2017-03-06T11:02:45.150Z,4876
2017-03-06T11:03:45.599Z,4772
2017-03-06T11:04:45.656Z,4944
2017-03-06T11:05:45.706Z,4956
2017-03-06T11:06:45.745Z,5040
2017-03-06T11:07:45.805Z,5248
2017-03-06T11:08:45.900Z,6108
2017-03-06T11:09:45.923Z,18200
2017-03-06T11:10:45.969Z,42304
2017-03-06T11:11:46.018Z,51232
2017-03-06T11:12:46.085Z,37376
2017-03-06T11:13:46.145Z,35488
2017-03-06T11:14:46.190Z,47008
2017-03-06T11:15:46.274Z,50144
2017-03-06T11:16:46.328Z,51296
2017-03-06T11:17:46.343Z,49504
2017-03-06T11:18:46.023Z,48928
2017-03-06T11:19:46.476Z,46464
2017-03-06T11:20:46.511Z,49088
2017-03-06T11:21:46.577Z,49408
2017-03-06T11:22:46.629Z,45024
2017-03-06T11:23:46.682Z,46880
2017-03-06T11:24:46.737Z,49792
2017-03-06T11:25:46.810Z,44992
2017-03-06T11:26:46.834Z,52352
2017-03-06T11:27:46.900Z,52576
2017-03-06T11:28:46.965Z,53344
2017-03-06T11:29:47.031Z,53696
2017-03-06T11:30:47.098Z,48832
2017-03-06T11:31:47.119Z,51584
2017-03-06T11:32:47.160Z,53984
2017-03-06T11:33:47.223Z,38528
2017-03-06T11:34:47.281Z,51904
2017-03-06T11:35:47.337Z,53632
2017-03-06T11:36:47.403Z,52448
2017-03-06T11:37:47.436Z,57760
2017-03-06T11:38:47.525Z,49088
2017-03-06T11:39:47.596Z,55328
2017-03-06T11:40:47.608Z,54208
2017-03-06T11:41:47.655Z,51072
2017-03-06T11:42:47.733Z,49376
2017-03-06T11:43:47.776Z,51424
2017-03-06T11:44:47.838Z,51328
2017-03-06T11:45:47.907Z,59200
2017-03-06T11:46:47.934Z,65920
2017-03-06T11:47:48.020Z,69088
2017-03-06T11:48:48.036Z,68000
2017-03-06T11:49:48.114Z,71392
2017-03-06T11:50:48.183Z,57184
2017-03-06T11:51:48.208Z,47008
2017-03-06T11:52:48.264Z,48288
2017-03-06T11:53:48.323Z,48128
2017-03-06T11:54:48.410Z,42560
2017-03-06T11:55:48.036Z,43552
2017-03-06T11:56:48.525Z,31456
2017-03-06T11:57:48.544Z,13728
2017-03-06T11:58:48.609Z,12160
2017-03-06T11:59:48.665Z,15804
2017-03-06T12:00:48.740Z,12996
2017-03-06T12:01:48.799Z,13824
2017-03-06T12:02:48.824Z,14552
2017-03-06T12:03:48.903Z,14976
2017-03-06T12:04:48.949Z,17936
2017-03-06T12:05:48.986Z,23264
2017-03-06T12:06:49.034Z,27680
2017-03-06T12:07:49.088Z,32480
2017-03-06T12:08:49.168Z,21472
2017-03-06T12:09:49.201Z,17260
2017-03-06T12:10:49.256Z,20896
2017-03-06T12:11:48.938Z,16292
2017-03-06T12:12:48.992Z,20896
2017-03-06T12:13:49.445Z,25152
2017-03-06T12:14:49.501Z,21952
2017-03-06T12:15:49.555Z,17816
2017-03-06T12:16:49.639Z,15352
2017-03-06T12:17:49.656Z,18556
2017-03-06T12:18:49.713Z,33152
2017-03-06T12:19:49.386Z,14920
2017-03-06T12:20:49.835Z,8600
2017-03-06T12:21:49.901Z,4236
2017-03-06T12:22:49.948Z,12368
2017-03-06T12:23:50.003Z,5992
2017-03-06T12:24:50.056Z,2940
2017-03-06T12:25:50.112Z,4144
2017-03-06T12:26:49.395Z,5892
2017-03-06T12:27:49.827Z,9612
2017-03-06T12:28:50.276Z,3232
2017-03-06T12:29:50.340Z,1924
2017-03-06T12:30:50.379Z,2016
2017-03-06T12:31:50.448Z,1796
2017-03-06T12:32:50.513Z,2388
2017-03-06T12:33:50.551Z,2988
2017-03-06T12:34:50.591Z,3212
2017-03-06T12:35:50.647Z,3196
2017-03-06T12:36:50.323Z,7540
2017-03-06T12:37:50.766Z,9868
2017-03-06T12:38:50.846Z,5852
2017-03-06T12:39:50.874Z,9096
2017-03-06T12:40:50.934Z,7516
2017-03-06T12:41:51.008Z,4704
2017-03-06T12:42:51.051Z,5856
2017-03-06T12:43:51.094Z,16032
2017-03-06T12:44:51.161Z,15660
2017-03-06T12:45:51.232Z,14028
2017-03-06T12:46:51.256Z,13420
2017-03-06T12:47:51.333Z,12516
2017-03-06T12:48:51.381Z,8948
2017-03-06T12:49:51.441Z,11908
2017-03-06T12:50:51.495Z,10364
2017-03-06T12:51:51.560Z,8992
2017-03-06T12:52:51.599Z,9796
2017-03-06T12:53:51.295Z,9336
2017-03-06T12:54:51.730Z,9156
2017-03-06T12:55:51.767Z,7348
2017-03-06T12:56:51.833Z,5108
2017-03-06T12:57:51.905Z,7632
2017-03-06T12:58:51.953Z,6548
2017-03-06T12:59:52.005Z,6500
2017-03-06T13:00:52.058Z,5732
2017-03-06T13:01:51.743Z,9260
2017-03-06T13:02:52.151Z,12724
2017-03-06T13:03:52.208Z,15368
2017-03-06T13:04:52.271Z,11484
2017-03-06T13:05:52.322Z,12684
2017-03-06T13:06:52.386Z,9160
2017-03-06T13:07:52.432Z,7596
2017-03-06T13:08:52.510Z,5924
2017-03-06T13:09:52.544Z,6476
2017-03-06T13:10:52.593Z,4868
2017-03-06T13:11:52.661Z,3252
2017-03-06T13:12:52.707Z,2948
2017-03-06T13:13:52.750Z,2328
2017-03-06T13:14:52.449Z,2132
2017-03-06T13:15:52.871Z,2140
2017-03-06T13:16:52.532Z,1912
2017-03-06T13:17:52.989Z,2372
2017-03-06T13:18:53.047Z,1816
2017-03-06T13:19:53.079Z,2224
2017-03-06T13:20:53.148Z,2852
2017-03-06T13:21:53.213Z,2640
2017-03-06T13:22:53.261Z,2304
2017-03-06T13:23:53.306Z,2324
2017-03-06T13:24:53.006Z,2376
2017-03-06T13:25:53.429Z,1980
2017-03-06T13:26:53.464Z,2268
2017-03-06T13:27:53.544Z,2268
2017-03-06T13:28:53.609Z,2160
2017-03-06T13:29:53.653Z,1884
2017-03-06T13:30:53.684Z,1844
2017-03-06T13:31:53.751Z,2352
2017-03-06T13:32:53.838Z,2468
2017-03-06T13:33:53.465Z,2544
2017-03-06T13:34:53.928Z,2988
2017-03-06T13:35:53.591Z,2892
2017-03-06T13:36:54.035Z,3356
2017-03-06T13:37:53.706Z,3432
2017-03-06T13:38:53.738Z,3540
2017-03-06T13:39:53.824Z,3168
2017-03-06T13:40:54.266Z,2988
2017-03-06T13:41:54.314Z,2800
2017-03-06T13:42:54.344Z,2488
2017-03-06T13:43:54.013Z,2168
2017-03-06T13:44:54.452Z,2084
2017-03-06T13:45:54.511Z,2016
2017-03-06T13:46:54.616Z,1860
2017-03-06T13:47:54.652Z,1808
2017-03-06T13:48:54.705Z,1768
2017-03-06T13:49:54.732Z,1720
2017-03-06T13:50:54.796Z,1672
2017-03-06T13:51:54.875Z,1648
2017-03-06T13:52:54.909Z,1584
2017-03-06T13:53:54.963Z,1504
2017-03-06T13:54:55.041Z,1452
2017-03-06T13:55:54.695Z,1408
2017-03-06T13:56:54.743Z,1408